Information Last Ob Photographs Calibration Meteogram Network Table Neighbors Monthly Summaries Observation History Wind Roses Custom Wind Roses Data Calendar Satellite Cloud Product Download

Most Recent Observation

This application displays the last observation received by the IEM from this site. The time stamp is in America/Chicago timezone.

Observation Local Time25 Feb 2024, 1:53 AM
Observation UTC Time2024-02-25T07:53:00Z
Air Temp [F]28
Maximum Air Temperature [F]30
Minimum Air Temperature [F]28
Dew Point [F]23
Wind DirectionN (0 degrees)
Wind Speed [knots]0
Altimeter [inches]29.73
Raw Observation/ProductKAMW 250753Z AUTO 00000KT 10SM CLR M02/M05 A2973 RMK AO2 SLP071 T10221050
Cloud Layer 1: CLR ( feet)

This data was provided by a JSON(P) webservice. You can find more JSON services.